createdAt,value
2023-03-13T00:00:25.827Z,10.43
2023-03-13T00:02:52.292Z,10.34
2023-03-13T00:05:20.212Z,10.30
2023-03-13T00:07:46.729Z,10.33
2023-03-13T00:10:13.180Z,10.26
2023-03-13T00:12:39.683Z,10.19
2023-03-13T00:15:07.275Z,10.15
2023-03-13T00:17:33.732Z,10.15
2023-03-13T00:20:00.292Z,10.15
2023-03-13T00:22:28.131Z,10.20
2023-03-13T00:24:54.651Z,10.24
2023-03-13T00:27:21.127Z,10.19
2023-03-13T00:29:47.581Z,10.19
2023-03-13T00:32:14.110Z,10.16
2023-03-13T00:34:40.676Z,10.20
2023-03-13T00:37:07.158Z,10.20
2023-03-13T00:39:34.981Z,10.15
2023-03-13T00:42:01.481Z,10.14
2023-03-13T00:44:27.989Z,10.18
2023-03-13T00:46:54.445Z,10.19
2023-03-13T00:49:20.919Z,10.14
2023-03-13T00:51:47.428Z,10.10
2023-03-13T00:54:13.941Z,10.12
2023-03-13T00:56:41.759Z,10.10
2023-03-13T00:59:08.251Z,10.14
2023-03-13T01:01:36.026Z,10.07
2023-03-13T01:04:05.812Z,10.09
2023-03-13T01:06:34.745Z,10.07
2023-03-13T01:09:01.826Z,10.07
2023-03-13T01:11:29.749Z,10.05
2023-03-13T01:13:59.433Z,10.04
2023-03-13T01:16:27.167Z,10.06
2023-03-13T01:18:55.943Z,10.11
2023-03-13T01:21:23.886Z,10.09
2023-03-13T01:23:51.612Z,10.11
2023-03-13T01:26:18.465Z,10.07
2023-03-13T01:28:45.766Z,10.13
2023-03-13T01:31:15.418Z,10.18
2023-03-13T01:33:42.414Z,10.33
2023-03-13T01:36:09.455Z,10.28
2023-03-13T01:38:36.129Z,10.25
2023-03-13T01:41:03.932Z,10.24
2023-03-13T01:43:32.710Z,10.27
2023-03-13T01:46:03.161Z,10.28
2023-03-13T01:48:37.374Z,10.38
2023-03-13T01:51:08.029Z,10.34
2023-03-13T01:53:36.802Z,10.46
2023-03-13T01:56:07.263Z,10.44
2023-03-13T01:58:33.902Z,10.53
2023-03-13T02:01:00.639Z,10.51
2023-03-13T02:03:28.252Z,10.50
2023-03-13T02:05:57.814Z,10.47
2023-03-13T02:08:29.911Z,10.48
2023-03-13T02:11:04.187Z,10.58
2023-03-13T02:13:30.661Z,10.61
2023-03-13T02:15:57.302Z,10.60
2023-03-13T02:18:23.861Z,10.64
2023-03-13T02:20:53.332Z,10.60
2023-03-13T02:23:27.711Z,10.64
2023-03-13T02:25:56.569Z,10.59
2023-03-13T02:28:25.739Z,10.62
2023-03-13T02:30:55.441Z,10.64
2023-03-13T02:33:26.053Z,10.67
2023-03-13T02:35:53.599Z,10.72
2023-03-13T02:38:24.262Z,10.79
2023-03-13T02:40:53.149Z,10.81
2023-03-13T02:43:26.114Z,10.76
2023-03-13T02:46:04.009Z,10.80
2023-03-13T02:48:32.195Z,10.93
2023-03-13T02:50:58.814Z,10.90
2023-03-13T02:53:25.456Z,10.92
2023-03-13T02:55:52.536Z,10.91
2023-03-13T02:58:19.200Z,10.93
2023-03-13T03:00:47.095Z,10.94
2023-03-13T03:03:13.615Z,11.04
2023-03-13T03:05:40.295Z,11.00
2023-03-13T03:08:06.784Z,11.04
2023-03-13T03:10:35.780Z,11.04
2023-03-13T03:13:02.325Z,11.01
2023-03-13T03:15:28.840Z,11.00
2023-03-13T03:17:56.667Z,11.05
2023-03-13T03:20:23.178Z,11.04
2023-03-13T03:22:49.655Z,11.05
2023-03-13T03:25:16.203Z,11.11
2023-03-13T03:27:42.687Z,11.18
2023-03-13T03:30:10.832Z,11.22
2023-03-13T03:32:37.325Z,11.23
2023-03-13T03:35:06.380Z,11.26
2023-03-13T03:37:32.853Z,11.28
2023-03-13T03:39:59.318Z,11.33
2023-03-13T03:42:25.782Z,11.31
2023-03-13T03:44:52.341Z,11.32
2023-03-13T03:47:18.913Z,11.34
2023-03-13T03:49:45.475Z,11.34
2023-03-13T03:52:13.295Z,11.37
2023-03-13T03:54:39.862Z,11.41
2023-03-13T03:57:06.448Z,11.44
2023-03-13T03:59:32.978Z,11.39
2023-03-13T04:01:59.466Z,11.41
2023-03-13T04:04:26.170Z,11.49
2023-03-13T04:06:52.738Z,11.53
2023-03-13T04:09:20.810Z,11.62
2023-03-13T04:11:47.295Z,11.63
2023-03-13T04:14:13.749Z,11.62
2023-03-13T04:16:40.243Z,11.65
2023-03-13T04:19:06.762Z,11.74
2023-03-13T04:21:33.578Z,11.76
2023-03-13T04:24:00.028Z,11.84
2023-03-13T04:26:27.835Z,11.80
2023-03-13T04:28:54.386Z,11.79
2023-03-13T04:31:20.891Z,11.84
2023-03-13T04:33:47.514Z,11.84
2023-03-13T04:36:14.091Z,11.84
2023-03-13T04:38:40.539Z,11.92
2023-03-13T04:41:07.024Z,11.91
2023-03-13T04:43:34.907Z,11.97
2023-03-13T04:46:01.371Z,12.02
2023-03-13T04:48:27.940Z,12.02
2023-03-13T04:50:54.431Z,12.02
2023-03-13T04:53:20.911Z,12.07
2023-03-13T04:55:48.458Z,12.08
2023-03-13T04:58:14.936Z,12.07
2023-03-13T05:00:42.869Z,12.06
2023-03-13T05:03:09.308Z,12.14
2023-03-13T05:05:35.821Z,12.14
2023-03-13T05:08:02.421Z,12.10
2023-03-13T05:10:28.937Z,12.11
2023-03-13T05:12:55.470Z,12.16
2023-03-13T05:15:21.947Z,12.17
2023-03-13T05:17:49.820Z,12.16
2023-03-13T05:20:16.470Z,12.19
2023-03-13T05:22:42.948Z,12.22
2023-03-13T05:25:09.743Z,12.25
2023-03-13T05:27:36.267Z,12.37
2023-03-13T05:30:02.924Z,12.37
2023-03-13T05:32:29.483Z,12.45
2023-03-13T05:34:57.396Z,12.40
2023-03-13T05:37:23.959Z,12.38
2023-03-13T05:39:50.680Z,12.35
2023-03-13T05:42:17.160Z,12.45
2023-03-13T05:44:43.636Z,12.50
2023-03-13T05:47:10.167Z,12.54
2023-03-13T05:49:36.639Z,12.58
2023-03-13T05:52:05.113Z,12.54
2023-03-13T05:54:31.593Z,12.56
2023-03-13T05:56:58.258Z,12.60
2023-03-13T05:59:24.785Z,12.70
2023-03-13T06:01:51.276Z,12.69
2023-03-13T06:04:17.873Z,12.75
2023-03-13T06:06:46.025Z,12.77
2023-03-13T06:09:13.875Z,12.82
2023-03-13T06:11:40.397Z,12.89
2023-03-13T06:14:07.023Z,12.93
2023-03-13T06:16:33.597Z,12.89
2023-03-13T06:19:00.138Z,12.89
2023-03-13T06:21:26.701Z,12.90
2023-03-13T06:23:54.396Z,12.91
2023-03-13T06:26:22.225Z,12.95
2023-03-13T06:28:48.761Z,12.93
2023-03-13T06:31:15.254Z,12.95
2023-03-13T06:33:41.749Z,12.94
2023-03-13T06:36:09.263Z,13.02
2023-03-13T06:38:35.887Z,13.12
2023-03-13T06:41:02.403Z,13.15
2023-03-13T06:43:30.402Z,13.16
2023-03-13T06:45:56.988Z,13.14
2023-03-13T06:48:23.540Z,13.20
2023-03-13T06:50:50.750Z,13.13
2023-03-13T06:53:19.152Z,13.10
2023-03-13T06:55:46.251Z,13.08
2023-03-13T06:58:25.382Z,13.16
2023-03-13T07:00:59.530Z,13.17
2023-03-13T07:03:26.175Z,13.20
2023-03-13T07:05:55.811Z,13.23
2023-03-13T07:08:22.318Z,13.19
2023-03-13T07:10:48.834Z,13.24
2023-03-13T07:13:15.306Z,13.23
2023-03-13T07:15:41.749Z,13.25
2023-03-13T07:18:09.583Z,13.27
2023-03-13T07:20:36.165Z,13.27
2023-03-13T07:23:02.759Z,13.28
2023-03-13T07:25:29.271Z,13.26
2023-03-13T07:27:55.745Z,13.29
2023-03-13T07:30:22.730Z,13.32
2023-03-13T07:32:49.255Z,13.34
2023-03-13T07:35:17.204Z,13.39
2023-03-13T07:37:43.745Z,13.44
2023-03-13T07:40:11.550Z,13.45
2023-03-13T07:42:40.359Z,13.48
2023-03-13T07:45:07.837Z,13.41
2023-03-13T07:47:34.754Z,13.44
2023-03-13T07:50:01.264Z,13.47
2023-03-13T07:52:29.114Z,13.46
2023-03-13T07:54:55.597Z,13.51
2023-03-13T07:57:22.121Z,13.46
2023-03-13T07:59:48.632Z,13.51
2023-03-13T08:02:15.213Z,13.51
2023-03-13T08:04:41.868Z,13.51
2023-03-13T08:07:09.183Z,13.55
2023-03-13T08:09:37.248Z,13.51
2023-03-13T08:12:04.397Z,13.52
2023-03-13T08:14:30.891Z,13.53
2023-03-13T08:16:57.447Z,13.53
2023-03-13T08:19:23.975Z,13.69
2023-03-13T08:21:50.446Z,13.69
2023-03-13T08:24:16.967Z,13.79
2023-03-13T08:26:44.768Z,13.89
2023-03-13T08:29:13.152Z,13.92
2023-03-13T08:31:44.207Z,13.97
2023-03-13T08:34:12.002Z,14.04
2023-03-13T08:36:39.283Z,14.12
2023-03-13T08:39:07.825Z,14.10
2023-03-13T08:41:36.339Z,14.14
2023-03-13T08:44:05.150Z,14.14
2023-03-13T08:46:34.152Z,14.18
2023-03-13T08:49:01.081Z,14.18
2023-03-13T08:51:28.782Z,14.30
2023-03-13T08:53:56.216Z,14.37
2023-03-13T08:56:24.429Z,14.44
2023-03-13T08:58:52.352Z,14.51
2023-03-13T09:01:21.680Z,14.51
2023-03-13T09:03:48.795Z,14.56
2023-03-13T09:06:15.258Z,14.56
2023-03-13T09:08:42.156Z,14.67
2023-03-13T09:11:11.174Z,14.73
2023-03-13T09:13:39.673Z,14.72
2023-03-13T09:16:08.417Z,14.77
2023-03-13T09:18:36.971Z,14.79
2023-03-13T09:21:07.317Z,14.79
2023-03-13T09:23:33.946Z,14.80
2023-03-13T09:26:00.788Z,14.75
2023-03-13T09:28:27.438Z,14.71
2023-03-13T09:30:54.546Z,14.79
2023-03-13T09:33:22.344Z,14.76
2023-03-13T09:35:50.373Z,14.86
2023-03-13T09:38:16.967Z,14.85
2023-03-13T09:40:59.850Z,14.86
2023-03-13T09:43:42.275Z,14.93
2023-03-13T09:46:16.846Z,15.08
2023-03-13T09:48:47.208Z,15.12
2023-03-13T09:51:18.592Z,15.19
2023-03-13T09:53:52.250Z,15.14
2023-03-13T09:56:23.827Z,15.22
2023-03-13T09:58:54.471Z,15.19
2023-03-13T10:01:26.005Z,15.14
2023-03-13T10:04:04.462Z,15.24
2023-03-13T10:06:38.045Z,15.30
2023-03-13T10:09:05.881Z,15.34
2023-03-13T10:11:38.715Z,15.39
2023-03-13T10:14:11.824Z,15.45
2023-03-13T10:16:44.024Z,15.53
2023-03-13T10:19:14.111Z,15.56
2023-03-13T10:21:45.014Z,15.62
2023-03-13T10:24:18.066Z,15.60
2023-03-13T10:26:44.628Z,15.66
2023-03-13T10:29:22.981Z,15.91
2023-03-13T10:31:55.833Z,16.08
2023-03-13T10:34:22.731Z,16.24
2023-03-13T10:36:55.516Z,16.34
2023-03-13T10:39:24.280Z,16.52
2023-03-13T10:41:56.426Z,16.77
2023-03-13T10:44:29.374Z,16.91
2023-03-13T10:47:00.213Z,16.91
2023-03-13T10:49:26.947Z,16.91
2023-03-13T10:51:58.664Z,16.80
2023-03-13T10:54:27.350Z,16.79
2023-03-13T10:57:19.350Z,16.68
2023-03-13T10:59:47.377Z,16.54
2023-03-13T11:02:22.763Z,16.50
2023-03-13T11:04:49.617Z,16.46
2023-03-13T11:07:25.186Z,16.39
2023-03-13T11:10:04.282Z,16.41
2023-03-13T11:12:34.515Z,16.40
2023-03-13T11:15:03.311Z,16.40
2023-03-13T11:17:37.370Z,16.37
2023-03-13T11:20:22.088Z,16.34
2023-03-13T11:23:08.763Z,16.41
2023-03-13T11:25:39.236Z,16.46
2023-03-13T11:28:19.931Z,16.48
2023-03-13T11:31:03.682Z,16.50
2023-03-13T11:33:36.248Z,16.49
2023-03-13T11:36:13.122Z,16.53
2023-03-13T11:38:44.280Z,16.49
2023-03-13T11:41:37.202Z,16.48
2023-03-13T11:44:16.427Z,16.50
2023-03-13T11:46:59.995Z,16.46
2023-03-13T11:49:43.679Z,16.47
2023-03-13T11:52:24.129Z,16.42
2023-03-13T11:55:03.337Z,16.57
2023-03-13T11:57:32.196Z,16.43
2023-03-13T12:00:15.534Z,16.47
2023-03-13T12:02:48.858Z,16.59
2023-03-13T12:05:18.482Z,16.62
2023-03-13T12:07:50.947Z,16.58
2023-03-13T12:10:25.522Z,16.62
2023-03-13T12:12:58.930Z,16.59
2023-03-13T12:15:29.804Z,16.63
2023-03-13T12:18:02.490Z,16.65
2023-03-13T12:20:38.449Z,16.64
2023-03-13T12:23:16.768Z,16.66
2023-03-13T12:25:49.117Z,16.80
2023-03-13T12:28:25.717Z,16.94
2023-03-13T12:30:59.105Z,17.16
2023-03-13T12:33:31.035Z,17.34
2023-03-13T12:36:05.722Z,17.35
2023-03-13T12:38:37.856Z,17.29
2023-03-13T12:41:17.713Z,17.21
2023-03-13T12:44:00.584Z,17.20
2023-03-13T12:46:42.753Z,17.25
2023-03-13T12:49:35.117Z,17.42
2023-03-13T12:52:21.687Z,17.56
2023-03-13T12:55:18.598Z,17.69
2023-03-13T12:58:16.169Z,17.85
2023-03-13T13:00:45.992Z,17.83
2023-03-13T13:03:29.873Z,17.77
2023-03-13T13:06:03.932Z,17.77
2023-03-13T13:08:34.667Z,17.64
2023-03-13T13:11:45.290Z,17.58
2023-03-13T13:14:54.342Z,17.51
2023-03-13T13:17:26.564Z,17.50
2023-03-13T13:19:53.604Z,17.47
2023-03-13T13:22:45.961Z,17.45
2023-03-13T13:25:34.362Z,17.52
2023-03-13T13:28:26.694Z,17.58
2023-03-13T13:30:56.190Z,17.60
2023-03-13T13:33:38.780Z,17.56
2023-03-13T13:36:28.156Z,17.68
2023-03-13T13:38:55.466Z,17.58
2023-03-13T13:41:34.090Z,17.50
2023-03-13T13:44:33.839Z,17.56
2023-03-13T13:47:00.344Z,17.53
2023-03-13T13:49:33.297Z,17.53
2023-03-13T13:52:36.426Z,17.48
2023-03-13T13:55:04.107Z,17.40
2023-03-13T13:57:34.712Z,17.41
2023-03-13T14:00:06.490Z,17.43
2023-03-13T14:02:35.478Z,17.36
2023-03-13T14:05:06.330Z,17.33
2023-03-13T14:07:53.029Z,17.35
2023-03-13T14:10:29.824Z,17.32
2023-03-13T14:12:58.598Z,17.32
2023-03-13T14:15:26.860Z,17.25
2023-03-13T14:17:55.088Z,17.14
2023-03-13T14:20:29.252Z,17.07
2023-03-13T14:22:59.919Z,17.03
2023-03-13T14:25:29.485Z,16.94
2023-03-13T14:27:56.244Z,17.03
2023-03-13T14:30:23.527Z,17.02
2023-03-13T14:32:51.360Z,17.11
2023-03-13T14:35:19.658Z,17.23
2023-03-13T14:37:48.920Z,17.34
2023-03-13T14:40:29.644Z,17.33
2023-03-13T14:42:58.519Z,17.40
2023-03-13T14:45:29.128Z,17.43
2023-03-13T14:48:00.835Z,17.42
2023-03-13T14:50:27.409Z,17.30
2023-03-13T14:53:00.775Z,17.39
2023-03-13T14:55:30.999Z,17.37
2023-03-13T14:57:59.336Z,17.36
2023-03-13T15:00:33.754Z,17.36
2023-03-13T15:03:24.346Z,17.38
2023-03-13T15:06:03.403Z,17.41
2023-03-13T15:08:31.429Z,17.43
2023-03-13T15:10:58.072Z,17.37
2023-03-13T15:13:27.492Z,17.35
2023-03-13T15:15:54.193Z,17.40
2023-03-13T15:18:23.603Z,17.68
2023-03-13T15:20:51.206Z,17.77
2023-03-13T15:23:18.675Z,17.69
2023-03-13T15:25:46.903Z,17.73
2023-03-13T15:28:16.024Z,17.78
2023-03-13T15:30:43.034Z,17.65
2023-03-13T15:33:13.910Z,17.60
2023-03-13T15:35:40.568Z,17.71
2023-03-13T15:38:12.654Z,17.85
2023-03-13T15:40:39.173Z,18.01
2023-03-13T15:43:07.966Z,17.91
2023-03-13T15:45:35.620Z,17.85
2023-03-13T15:48:02.496Z,17.91
2023-03-13T15:50:29.160Z,17.70
2023-03-13T15:52:55.777Z,17.73
2023-03-13T15:55:22.307Z,17.99
2023-03-13T15:57:50.067Z,18.08
2023-03-13T16:00:19.987Z,17.99
2023-03-13T16:02:46.735Z,17.93
2023-03-13T16:05:13.250Z,18.09
2023-03-13T16:07:39.752Z,18.16
2023-03-13T16:10:14.898Z,17.89
2023-03-13T16:12:41.391Z,17.76
2023-03-13T16:15:08.841Z,17.59
2023-03-13T16:17:36.715Z,17.56
2023-03-13T16:20:03.657Z,17.40
2023-03-13T16:22:30.179Z,17.20
2023-03-13T16:24:56.652Z,17.12
2023-03-13T16:27:23.121Z,17.03
2023-03-13T16:29:49.579Z,17.07
2023-03-13T16:32:17.285Z,16.94
2023-03-13T16:34:45.116Z,16.77
2023-03-13T16:37:13.379Z,16.59
2023-03-13T16:39:39.946Z,16.41
2023-03-13T16:42:06.465Z,16.26
2023-03-13T16:44:32.935Z,16.26
2023-03-13T16:47:06.053Z,16.08
2023-03-13T16:49:32.817Z,15.96
2023-03-13T16:52:00.676Z,15.89
2023-03-13T16:54:27.147Z,15.79
2023-03-13T16:56:53.705Z,15.78
2023-03-13T16:59:20.168Z,15.66
2023-03-13T17:01:46.746Z,15.65
2023-03-13T17:04:13.398Z,15.63
2023-03-13T17:06:42.081Z,15.57
2023-03-13T17:09:15.233Z,15.47
2023-03-13T17:11:42.252Z,15.51
2023-03-13T17:14:08.895Z,15.39
2023-03-13T17:16:38.767Z,15.38
2023-03-13T17:19:05.348Z,15.29
2023-03-13T17:21:32.481Z,15.29
2023-03-13T17:23:59.589Z,15.22
2023-03-13T17:26:29.141Z,15.16
2023-03-13T17:28:57.228Z,15.13
2023-03-13T17:31:25.545Z,15.10
2023-03-13T17:33:52.201Z,15.04
2023-03-13T17:36:21.360Z,15.04
2023-03-13T17:38:49.545Z,15.00
2023-03-13T17:41:18.171Z,14.97
2023-03-13T17:43:46.094Z,14.92
2023-03-13T17:46:16.078Z,14.96
2023-03-13T17:48:42.649Z,14.91
2023-03-13T17:51:14.770Z,14.85
2023-03-13T17:53:41.412Z,14.77
2023-03-13T17:56:12.956Z,14.72
2023-03-13T17:58:39.445Z,14.71
2023-03-13T18:01:11.423Z,14.67
2023-03-13T18:03:37.890Z,14.64
2023-03-13T18:06:05.182Z,14.64
2023-03-13T18:08:31.838Z,14.66
2023-03-13T18:10:58.303Z,14.56
2023-03-13T18:13:24.838Z,14.57
2023-03-13T18:15:51.344Z,14.64
2023-03-13T18:18:19.154Z,14.60
2023-03-13T18:20:45.668Z,14.52
2023-03-13T18:23:12.112Z,14.49
2023-03-13T18:25:38.602Z,14.46
2023-03-13T18:28:05.171Z,14.44
2023-03-13T18:30:31.624Z,14.40
2023-03-13T18:32:58.148Z,14.38
2023-03-13T18:35:26.117Z,14.35
2023-03-13T18:37:52.736Z,14.32
2023-03-13T18:40:22.066Z,14.30
2023-03-13T18:42:48.648Z,14.30
2023-03-13T18:45:16.436Z,14.25
2023-03-13T18:47:43.154Z,14.16
2023-03-13T18:50:20.307Z,14.17
2023-03-13T18:52:48.170Z,14.20
2023-03-13T18:55:14.798Z,14.10
2023-03-13T18:57:41.528Z,14.03
2023-03-13T19:00:15.499Z,14.03
2023-03-13T19:02:42.008Z,13.97
2023-03-13T19:05:09.062Z,14.00
2023-03-13T19:07:35.769Z,13.97
2023-03-13T19:10:03.702Z,13.93
2023-03-13T19:12:30.186Z,13.85
2023-03-13T19:14:56.676Z,13.84
2023-03-13T19:17:25.037Z,13.80
2023-03-13T19:19:51.539Z,13.76
2023-03-13T19:22:17.995Z,13.71
2023-03-13T19:24:44.513Z,13.72
2023-03-13T19:27:14.382Z,13.72
2023-03-13T19:29:40.872Z,13.73
2023-03-13T19:32:12.344Z,13.68
2023-03-13T19:34:38.830Z,13.80
2023-03-13T19:37:05.396Z,13.71
2023-03-13T19:39:31.859Z,13.61
2023-03-13T19:41:58.658Z,13.55
2023-03-13T19:44:26.512Z,13.54
2023-03-13T19:46:53.091Z,13.54
2023-03-13T19:49:20.713Z,13.62
2023-03-13T19:51:47.825Z,13.52
2023-03-13T19:54:15.148Z,13.51
2023-03-13T19:56:44.037Z,13.53
2023-03-13T19:59:14.665Z,13.44
2023-03-13T20:01:43.060Z,13.48
2023-03-13T20:04:09.865Z,13.38
2023-03-13T20:06:37.247Z,13.35
2023-03-13T20:09:05.978Z,13.43
2023-03-13T20:11:32.961Z,13.32
2023-03-13T20:13:59.461Z,13.30
2023-03-13T20:16:27.251Z,13.26
2023-03-13T20:18:55.103Z,13.36
2023-03-13T20:21:22.338Z,13.21
2023-03-13T20:23:50.177Z,13.14
2023-03-13T20:26:19.376Z,13.08
2023-03-13T20:28:48.224Z,13.19
2023-03-13T20:31:16.667Z,13.13
2023-03-13T20:33:43.201Z,13.20
2023-03-13T20:36:13.664Z,13.08
2023-03-13T20:38:41.161Z,13.07
2023-03-13T20:41:08.247Z,12.99
2023-03-13T20:43:35.674Z,13.03
2023-03-13T20:46:02.359Z,12.92
2023-03-13T20:48:29.212Z,12.94
2023-03-13T20:50:57.340Z,12.98
2023-03-13T20:53:25.611Z,12.92
2023-03-13T20:55:52.736Z,12.94
2023-03-13T20:58:19.191Z,12.87
2023-03-13T21:00:46.775Z,13.00
2023-03-13T21:03:13.468Z,13.10
2023-03-13T21:05:40.576Z,12.92
2023-03-13T21:08:08.332Z,12.92
2023-03-13T21:10:36.782Z,12.90
2023-03-13T21:13:03.694Z,12.86
2023-03-13T21:15:30.276Z,12.80
2023-03-13T21:17:56.812Z,12.87
2023-03-13T21:20:24.125Z,12.81
2023-03-13T21:22:50.945Z,12.79
2023-03-13T21:25:18.129Z,12.68
2023-03-13T21:27:45.979Z,12.66
2023-03-13T21:30:14.359Z,12.76
2023-03-13T21:32:40.962Z,12.70
2023-03-13T21:35:08.548Z,12.72
2023-03-13T21:37:35.327Z,12.65
2023-03-13T21:40:02.692Z,12.66
2023-03-13T21:42:29.196Z,12.63
2023-03-13T21:44:57.093Z,12.57
2023-03-13T21:47:23.568Z,12.63
2023-03-13T21:49:50.128Z,12.57
2023-03-13T21:52:16.656Z,12.50
2023-03-13T21:54:43.114Z,12.47
2023-03-13T21:57:09.600Z,12.49
2023-03-13T21:59:36.282Z,12.48
2023-03-13T22:02:04.343Z,12.50
2023-03-13T22:04:30.820Z,12.40
2023-03-13T22:06:57.291Z,12.39
2023-03-13T22:09:23.836Z,12.34
2023-03-13T22:11:50.538Z,12.36
2023-03-13T22:14:17.012Z,12.37
2023-03-13T22:16:43.510Z,12.42
2023-03-13T22:19:13.298Z,12.38
2023-03-13T22:21:39.814Z,12.31
2023-03-13T22:24:07.881Z,12.27
2023-03-13T22:26:34.918Z,12.23
2023-03-13T22:29:01.417Z,12.25
2023-03-13T22:31:27.942Z,12.16
2023-03-13T22:33:54.419Z,12.12
2023-03-13T22:36:22.247Z,12.09
2023-03-13T22:38:48.759Z,12.20
2023-03-13T22:41:16.416Z,12.22
2023-03-13T22:43:42.892Z,12.19
2023-03-13T22:46:09.542Z,12.18
2023-03-13T22:48:36.508Z,12.30
2023-03-13T22:51:07.383Z,12.23
2023-03-13T22:53:38.047Z,12.24
2023-03-13T22:56:05.299Z,12.28
2023-03-13T22:58:33.278Z,12.21
2023-03-13T23:00:59.857Z,12.19
2023-03-13T23:03:26.324Z,12.15
2023-03-13T23:05:52.785Z,12.19
2023-03-13T23:08:19.275Z,12.19
2023-03-13T23:10:47.271Z,12.14
2023-03-13T23:13:14.342Z,12.22
2023-03-13T23:15:55.772Z,12.28
2023-03-13T23:18:23.003Z,12.27
2023-03-13T23:20:49.493Z,12.27
2023-03-13T23:23:16.223Z,12.24
2023-03-13T23:25:42.788Z,12.28
2023-03-13T23:28:10.655Z,12.39
2023-03-13T23:30:37.490Z,12.32
2023-03-13T23:33:03.976Z,12.49
2023-03-13T23:35:30.524Z,12.47
2023-03-13T23:37:57.033Z,12.40
2023-03-13T23:40:23.960Z,12.46
2023-03-13T23:42:50.999Z,12.45
2023-03-13T23:45:19.166Z,12.39
2023-03-13T23:47:46.129Z,12.40
2023-03-13T23:50:13.219Z,12.39
2023-03-13T23:52:40.273Z,12.40
2023-03-13T23:55:07.999Z,12.40
2023-03-13T23:57:34.840Z,12.42
